sensor_id;sensor_type;location;lat;lon;timestamp;temperature;humidity
69546;SHT31;56766;52.260;20.746;2024-01-10T00:00:34;-9.23;81.76
69546;SHT31;56766;52.260;20.746;2024-01-10T00:03:20;-9.23;81.80
69546;SHT31;56766;52.260;20.746;2024-01-10T00:05:47;-9.21;81.85
69546;SHT31;56766;52.260;20.746;2024-01-10T00:08:14;-9.20;81.88
69546;SHT31;56766;52.260;20.746;2024-01-10T00:10:40;-9.18;81.83
69546;SHT31;56766;52.260;20.746;2024-01-10T00:13:07;-9.18;81.82
69546;SHT31;56766;52.260;20.746;2024-01-10T00:15:34;-9.19;81.90
69546;SHT31;56766;52.260;20.746;2024-01-10T00:18:00;-9.17;81.90
69546;SHT31;56766;52.260;20.746;2024-01-10T00:20:27;-9.17;81.91
69546;SHT31;56766;52.260;20.746;2024-01-10T00:22:53;-9.17;81.99
69546;SHT31;56766;52.260;20.746;2024-01-10T00:25:21;-9.15;82.00
69546;SHT31;56766;52.260;20.746;2024-01-10T00:27:47;-9.15;81.99
69546;SHT31;56766;52.260;20.746;2024-01-10T00:30:14;-9.13;82.00
69546;SHT31;56766;52.260;20.746;2024-01-10T00:32:41;-9.13;82.00
69546;SHT31;56766;52.260;20.746;2024-01-10T00:35:07;-9.10;82.00
69546;SHT31;56766;52.260;20.746;2024-01-10T00:37:34;-9.09;81.98
69546;SHT31;56766;52.260;20.746;2024-01-10T00:40:01;-9.09;81.93
69546;SHT31;56766;52.260;20.746;2024-01-10T00:42:28;-9.10;81.89
69546;SHT31;56766;52.260;20.746;2024-01-10T00:44:54;-9.10;81.92
69546;SHT31;56766;52.260;20.746;2024-01-10T00:47:21;-9.09;81.90
69546;SHT31;56766;52.260;20.746;2024-01-10T00:49:48;-9.08;81.82
69546;SHT31;56766;52.260;20.746;2024-01-10T00:52:15;-9.09;81.80
69546;SHT31;56766;52.260;20.746;2024-01-10T00:54:42;-9.10;81.80
69546;SHT31;56766;52.260;20.746;2024-01-10T00:57:10;-9.11;81.80
69546;SHT31;56766;52.260;20.746;2024-01-10T00:59:37;-9.11;81.80
69546;SHT31;56766;52.260;20.746;2024-01-10T01:02:03;-9.13;81.83
69546;SHT31;56766;52.260;20.746;2024-01-10T01:04:30;-9.12;81.90
69546;SHT31;56766;52.260;20.746;2024-01-10T01:06:57;-9.12;81.90
69546;SHT31;56766;52.260;20.746;2024-01-10T01:09:24;-9.13;81.87
69546;SHT31;56766;52.260;20.746;2024-01-10T01:11:51;-9.14;81.90
69546;SHT31;56766;52.260;20.746;2024-01-10T01:14:18;-9.14;81.90
69546;SHT31;56766;52.260;20.746;2024-01-10T01:16:44;-9.15;81.90
69546;SHT31;56766;52.260;20.746;2024-01-10T01:19:11;-9.17;81.90
69546;SHT31;56766;52.260;20.746;2024-01-10T01:21:38;-9.17;81.95
69546;SHT31;56766;52.260;20.746;2024-01-10T01:24:04;-9.17;82.00
69546;SHT31;56766;52.260;20.746;2024-01-10T01:26:31;-9.18;82.00
69546;SHT31;56766;52.260;20.746;2024-01-10T01:28:58;-9.18;82.08
69546;SHT31;56766;52.260;20.746;2024-01-10T01:31:25;-9.19;82.11
69546;SHT31;56766;52.260;20.746;2024-01-10T01:33:52;-9.18;82.20
69546;SHT31;56766;52.260;20.746;2024-01-10T01:36:18;-9.18;82.20
69546;SHT31;56766;52.260;20.746;2024-01-10T01:38:45;-9.17;82.20
69546;SHT31;56766;52.260;20.746;2024-01-10T01:41:12;-9.16;82.20
69546;SHT31;56766;52.260;20.746;2024-01-10T01:43:41;-9.17;82.21
69546;SHT31;56766;52.260;20.746;2024-01-10T01:46:10;-9.18;82.31
69546;SHT31;56766;52.260;20.746;2024-01-10T01:48:37;-9.17;82.38
69546;SHT31;56766;52.260;20.746;2024-01-10T01:51:06;-9.17;82.40
69546;SHT31;56766;52.260;20.746;2024-01-10T01:53:35;-9.16;82.41
69546;SHT31;56766;52.260;20.746;2024-01-10T01:56:06;-9.13;82.41
69546;SHT31;56766;52.260;20.746;2024-01-10T01:58:35;-9.12;82.41
69546;SHT31;56766;52.260;20.746;2024-01-10T02:01:04;-9.13;82.43
69546;SHT31;56766;52.260;20.746;2024-01-10T02:03:32;-9.13;82.42
69546;SHT31;56766;52.260;20.746;2024-01-10T02:06:00;-9.12;82.44
69546;SHT31;56766;52.260;20.746;2024-01-10T02:08:34;-9.11;82.43
69546;SHT31;56766;52.260;20.746;2024-01-10T02:11:02;-9.11;82.47
69546;SHT31;56766;52.260;20.746;2024-01-10T02:13:31;-9.10;82.50
69546;SHT31;56766;52.260;20.746;2024-01-10T02:15:59;-9.09;82.49
69546;SHT31;56766;52.260;20.746;2024-01-10T02:18:26;-9.07;82.40
69546;SHT31;56766;52.260;20.746;2024-01-10T02:20:52;-9.05;82.40
69546;SHT31;56766;52.260;20.746;2024-01-10T02:23:19;-9.05;82.30
69546;SHT31;56766;52.260;20.746;2024-01-10T02:25:46;-9.06;82.30
69546;SHT31;56766;52.260;20.746;2024-01-10T02:28:13;-9.07;82.29
69546;SHT31;56766;52.260;20.746;2024-01-10T02:30:39;-9.05;82.31
69546;SHT31;56766;52.260;20.746;2024-01-10T02:33:06;-9.04;82.31
69546;SHT31;56766;52.260;20.746;2024-01-10T02:35:33;-9.05;82.29
69546;SHT31;56766;52.260;20.746;2024-01-10T02:38:00;-9.05;82.29
69546;SHT31;56766;52.260;20.746;2024-01-10T02:40:26;-9.04;82.30
69546;SHT31;56766;52.260;20.746;2024-01-10T02:42:53;-9.08;82.30
69546;SHT31;56766;52.260;20.746;2024-01-10T02:45:20;-9.07;82.35
69546;SHT31;56766;52.260;20.746;2024-01-10T02:47:47;-9.05;82.37
69546;SHT31;56766;52.260;20.746;2024-01-10T02:50:13;-9.04;82.34
69546;SHT31;56766;52.260;20.746;2024-01-10T02:52:40;-9.05;82.34
69546;SHT31;56766;52.260;20.746;2024-01-10T02:55:07;-9.05;82.40
69546;SHT31;56766;52.260;20.746;2024-01-10T02:57:34;-9.05;82.40
69546;SHT31;56766;52.260;20.746;2024-01-10T03:00:00;-9.04;82.40
69546;SHT31;56766;52.260;20.746;2024-01-10T03:02:28;-9.04;82.40
69546;SHT31;56766;52.260;20.746;2024-01-10T03:04:54;-9.05;82.40
69546;SHT31;56766;52.260;20.746;2024-01-10T03:07:21;-9.03;82.40
69546;SHT31;56766;52.260;20.746;2024-01-10T03:09:51;-9.04;82.40
69546;SHT31;56766;52.260;20.746;2024-01-10T03:12:17;-9.02;82.40
69546;SHT31;56766;52.260;20.746;2024-01-10T03:14:44;-9.03;82.34
69546;SHT31;56766;52.260;20.746;2024-01-10T03:17:11;-9.03;82.40
69546;SHT31;56766;52.260;20.746;2024-01-10T03:19:38;-9.02;82.50
69546;SHT31;56766;52.260;20.746;2024-01-10T03:22:09;-9.01;82.50
69546;SHT31;56766;52.260;20.746;2024-01-10T03:24:37;-9.01;82.50
69546;SHT31;56766;52.260;20.746;2024-01-10T03:27:05;-9.01;82.50
69546;SHT31;56766;52.260;20.746;2024-01-10T03:29:32;-9.00;82.50
69546;SHT31;56766;52.260;20.746;2024-01-10T03:31:59;-8.99;82.46
69546;SHT31;56766;52.260;20.746;2024-01-10T03:34:26;-9.00;82.44
69546;SHT31;56766;52.260;20.746;2024-01-10T03:36:52;-9.01;82.50
69546;SHT31;56766;52.260;20.746;2024-01-10T03:39:19;-9.01;82.58
69546;SHT31;56766;52.260;20.746;2024-01-10T03:41:46;-9.00;82.58
69546;SHT31;56766;52.260;20.746;2024-01-10T03:44:13;-9.02;82.60
69546;SHT31;56766;52.260;20.746;2024-01-10T03:46:40;-9.01;82.60
69546;SHT31;56766;52.260;20.746;2024-01-10T03:49:07;-9.00;82.60
69546;SHT31;56766;52.260;20.746;2024-01-10T03:51:34;-9.00;82.60
69546;SHT31;56766;52.260;20.746;2024-01-10T03:54:00;-8.99;82.60
69546;SHT31;56766;52.260;20.746;2024-01-10T03:56:27;-8.97;82.58
69546;SHT31;56766;52.260;20.746;2024-01-10T03:58:54;-8.97;82.56
69546;SHT31;56766;52.260;20.746;2024-01-10T04:01:23;-8.96;82.54
69546;SHT31;56766;52.260;20.746;2024-01-10T04:03:50;-8.96;82.50
69546;SHT31;56766;52.260;20.746;2024-01-10T04:06:17;-8.99;82.51
69546;SHT31;56766;52.260;20.746;2024-01-10T04:08:43;-9.00;82.60
69546;SHT31;56766;52.260;20.746;2024-01-10T04:11:10;-8.99;82.61
69546;SHT31;56766;52.260;20.746;2024-01-10T04:13:37;-9.00;82.60
69546;SHT31;56766;52.260;20.746;2024-01-10T04:16:03;-9.00;82.61
69546;SHT31;56766;52.260;20.746;2024-01-10T04:18:30;-8.99;82.60
69546;SHT31;56766;52.260;20.746;2024-01-10T04:20:57;-9.00;82.62
69546;SHT31;56766;52.260;20.746;2024-01-10T04:23:24;-8.99;82.62
69546;SHT31;56766;52.260;20.746;2024-01-10T04:25:50;-8.99;82.60
69546;SHT31;56766;52.260;20.746;2024-01-10T04:28:17;-8.99;82.62
69546;SHT31;56766;52.260;20.746;2024-01-10T04:30:43;-8.99;82.63
69546;SHT31;56766;52.260;20.746;2024-01-10T04:33:10;-8.98;82.62
69546;SHT31;56766;52.260;20.746;2024-01-10T04:35:37;-8.98;82.68
69546;SHT31;56766;52.260;20.746;2024-01-10T04:38:03;-8.97;82.62
69546;SHT31;56766;52.260;20.746;2024-01-10T04:40:30;-8.98;82.65
69546;SHT31;56766;52.260;20.746;2024-01-10T04:42:57;-8.98;82.70
69546;SHT31;56766;52.260;20.746;2024-01-10T04:45:23;-8.97;82.70
69546;SHT31;56766;52.260;20.746;2024-01-10T04:47:50;-8.98;82.70
69546;SHT31;56766;52.260;20.746;2024-01-10T04:50:17;-8.96;82.68
69546;SHT31;56766;52.260;20.746;2024-01-10T04:52:43;-8.97;82.64
69546;SHT31;56766;52.260;20.746;2024-01-10T04:55:10;-8.99;82.67
69546;SHT31;56766;52.260;20.746;2024-01-10T04:57:37;-9.00;82.70
69546;SHT31;56766;52.260;20.746;2024-01-10T05:00:04;-8.99;82.70
69546;SHT31;56766;52.260;20.746;2024-01-10T05:02:31;-8.98;82.70
69546;SHT31;56766;52.260;20.746;2024-01-10T05:04:58;-8.99;82.70
69546;SHT31;56766;52.260;20.746;2024-01-10T05:07:25;-8.98;82.70
69546;SHT31;56766;52.260;20.746;2024-01-10T05:09:51;-8.98;82.68
69546;SHT31;56766;52.260;20.746;2024-01-10T05:12:18;-8.99;82.69
69546;SHT31;56766;52.260;20.746;2024-01-10T05:14:45;-9.01;82.67
69546;SHT31;56766;52.260;20.746;2024-01-10T05:17:12;-9.02;82.67
69546;SHT31;56766;52.260;20.746;2024-01-10T05:19:38;-9.02;82.70
69546;SHT31;56766;52.260;20.746;2024-01-10T05:22:05;-9.04;82.70
69546;SHT31;56766;52.260;20.746;2024-01-10T05:24:32;-9.04;82.71
69546;SHT31;56766;52.260;20.746;2024-01-10T05:26:59;-9.04;82.71
69546;SHT31;56766;52.260;20.746;2024-01-10T05:29:26;-9.04;82.72
69546;SHT31;56766;52.260;20.746;2024-01-10T05:31:53;-9.05;82.69
69546;SHT31;56766;52.260;20.746;2024-01-10T05:34:20;-9.03;82.70
69546;SHT31;56766;52.260;20.746;2024-01-10T05:36:47;-9.01;82.65
69546;SHT31;56766;52.260;20.746;2024-01-10T05:39:15;-8.99;82.60
69546;SHT31;56766;52.260;20.746;2024-01-10T05:41:42;-8.99;82.62
69546;SHT31;56766;52.260;20.746;2024-01-10T05:44:10;-8.98;82.64
69546;SHT31;56766;52.260;20.746;2024-01-10T05:46:36;-8.95;82.62
69546;SHT31;56766;52.260;20.746;2024-01-10T05:49:03;-8.94;82.56
69546;SHT31;56766;52.260;20.746;2024-01-10T05:51:31;-8.91;82.60
69546;SHT31;56766;52.260;20.746;2024-01-10T05:53:58;-8.90;82.59
69546;SHT31;56766;52.260;20.746;2024-01-10T05:56:25;-8.90;82.54
69546;SHT31;56766;52.260;20.746;2024-01-10T05:58:53;-8.90;82.50
69546;SHT31;56766;52.260;20.746;2024-01-10T06:01:20;-8.92;82.50
69546;SHT31;56766;52.260;20.746;2024-01-10T06:03:46;-8.93;82.50
69546;SHT31;56766;52.260;20.746;2024-01-10T06:06:13;-8.95;82.50
69546;SHT31;56766;52.260;20.746;2024-01-10T06:08:40;-8.96;82.50
69546;SHT31;56766;52.260;20.746;2024-01-10T06:11:07;-8.98;82.44
69546;SHT31;56766;52.260;20.746;2024-01-10T06:13:36;-8.99;82.49
69546;SHT31;56766;52.260;20.746;2024-01-10T06:16:07;-9.00;82.53
69546;SHT31;56766;52.260;20.746;2024-01-10T06:18:33;-9.00;82.57
69546;SHT31;56766;52.260;20.746;2024-01-10T06:21:00;-9.02;82.55
69546;SHT31;56766;52.260;20.746;2024-01-10T06:23:27;-9.03;82.50
69546;SHT31;56766;52.260;20.746;2024-01-10T06:25:54;-9.02;82.52
69546;SHT31;56766;52.260;20.746;2024-01-10T06:28:20;-9.04;82.50
69546;SHT31;56766;52.260;20.746;2024-01-10T06:30:47;-9.04;82.50
69546;SHT31;56766;52.260;20.746;2024-01-10T06:33:15;-9.04;82.50
69546;SHT31;56766;52.260;20.746;2024-01-10T06:35:42;-9.04;82.50
69546;SHT31;56766;52.260;20.746;2024-01-10T06:38:12;-9.05;82.51
69546;SHT31;56766;52.260;20.746;2024-01-10T06:40:38;-9.07;82.53
69546;SHT31;56766;52.260;20.746;2024-01-10T06:43:05;-9.07;82.60
69546;SHT31;56766;52.260;20.746;2024-01-10T06:45:34;-9.07;82.59
69546;SHT31;56766;52.260;20.746;2024-01-10T06:48:01;-9.05;82.61
69546;SHT31;56766;52.260;20.746;2024-01-10T06:50:27;-9.03;82.59
69546;SHT31;56766;52.260;20.746;2024-01-10T06:52:54;-9.03;82.60
69546;SHT31;56766;52.260;20.746;2024-01-10T06:55:21;-9.02;82.61
69546;SHT31;56766;52.260;20.746;2024-01-10T06:57:50;-9.00;82.60
69546;SHT31;56766;52.260;20.746;2024-01-10T07:00:20;-8.99;82.60
69546;SHT31;56766;52.260;20.746;2024-01-10T07:02:48;-8.97;82.58
69546;SHT31;56766;52.260;20.746;2024-01-10T07:05:15;-8.94;82.57
69546;SHT31;56766;52.260;20.746;2024-01-10T07:07:43;-8.90;82.58
69546;SHT31;56766;52.260;20.746;2024-01-10T07:10:10;-8.85;82.51
69546;SHT31;56766;52.260;20.746;2024-01-10T07:12:37;-8.82;82.50
69546;SHT31;56766;52.260;20.746;2024-01-10T07:15:04;-8.76;82.44
69546;SHT31;56766;52.260;20.746;2024-01-10T07:17:33;-8.72;82.40
69546;SHT31;56766;52.260;20.746;2024-01-10T07:20:00;-8.67;82.40
69546;SHT31;56766;52.260;20.746;2024-01-10T07:22:26;-8.60;82.40
69546;SHT31;56766;52.260;20.746;2024-01-10T07:24:53;-8.50;82.40
69546;SHT31;56766;52.260;20.746;2024-01-10T07:27:20;-8.38;82.33
69546;SHT31;56766;52.260;20.746;2024-01-10T07:29:46;-8.26;82.21
69546;SHT31;56766;52.260;20.746;2024-01-10T07:32:13;-8.17;82.09
69546;SHT31;56766;52.260;20.746;2024-01-10T07:34:40;-8.06;82.00
69546;SHT31;56766;52.260;20.746;2024-01-10T07:37:07;-7.97;81.91
69546;SHT31;56766;52.260;20.746;2024-01-10T07:39:35;-7.90;81.79
69546;SHT31;56766;52.260;20.746;2024-01-10T07:42:02;-7.84;81.76
69546;SHT31;56766;52.260;20.746;2024-01-10T07:44:29;-7.77;81.66
69546;SHT31;56766;52.260;20.746;2024-01-10T07:46:56;-7.72;81.45
69546;SHT31;56766;52.260;20.746;2024-01-10T07:49:22;-7.63;81.57
69546;SHT31;56766;52.260;20.746;2024-01-10T07:51:50;-7.55;81.45
69546;SHT31;56766;52.260;20.746;2024-01-10T07:54:17;-7.47;81.39
69546;SHT31;56766;52.260;20.746;2024-01-10T07:56:44;-7.38;81.26
69546;SHT31;56766;52.260;20.746;2024-01-10T07:59:10;-7.32;81.16
69546;SHT31;56766;52.260;20.746;2024-01-10T08:01:44;-7.23;81.10
69546;SHT31;56766;52.260;20.746;2024-01-10T08:04:22;-7.12;81.05
69546;SHT31;56766;52.260;20.746;2024-01-10T08:06:49;-7.06;80.91
69546;SHT31;56766;52.260;20.746;2024-01-10T08:09:15;-7.00;80.90
69546;SHT31;56766;52.260;20.746;2024-01-10T08:11:42;-6.92;80.71
69546;SHT31;56766;52.260;20.746;2024-01-10T08:14:09;-6.83;80.71
69546;SHT31;56766;52.260;20.746;2024-01-10T08:16:36;-6.74;80.49
69546;SHT31;56766;52.260;20.746;2024-01-10T08:19:02;-6.66;80.32
69546;SHT31;56766;52.260;20.746;2024-01-10T08:21:29;-6.56;80.17
69546;SHT31;56766;52.260;20.746;2024-01-10T08:23:56;-6.45;80.11
69546;SHT31;56766;52.260;20.746;2024-01-10T08:26:22;-6.29;79.94
69546;SHT31;56766;52.260;20.746;2024-01-10T08:28:49;-6.12;79.70
69546;SHT31;56766;52.260;20.746;2024-01-10T08:31:16;-6.03;79.34
69546;SHT31;56766;52.260;20.746;2024-01-10T08:33:43;-5.98;79.40
69546;SHT31;56766;52.260;20.746;2024-01-10T08:36:10;-5.92;79.31
69546;SHT31;56766;52.260;20.746;2024-01-10T08:38:38;-5.87;79.30
69546;SHT31;56766;52.260;20.746;2024-01-10T08:41:05;-5.84;79.23
69546;SHT31;56766;52.260;20.746;2024-01-10T08:43:34;-5.76;79.26
69546;SHT31;56766;52.260;20.746;2024-01-10T08:46:01;-5.68;79.11
69546;SHT31;56766;52.260;20.746;2024-01-10T08:48:27;-5.65;78.96
69546;SHT31;56766;52.260;20.746;2024-01-10T08:50:54;-5.60;78.92
69546;SHT31;56766;52.260;20.746;2024-01-10T08:53:24;-5.55;79.01
69546;SHT31;56766;52.260;20.746;2024-01-10T08:55:51;-5.46;78.99
69546;SHT31;56766;52.260;20.746;2024-01-10T08:58:17;-5.41;78.63
69546;SHT31;56766;52.260;20.746;2024-01-10T09:00:44;-5.41;78.16
69546;SHT31;56766;52.260;20.746;2024-01-10T09:03:11;-5.39;78.41
69546;SHT31;56766;52.260;20.746;2024-01-10T09:05:38;-5.33;78.41
69546;SHT31;56766;52.260;20.746;2024-01-10T09:08:06;-5.27;78.29
69546;SHT31;56766;52.260;20.746;2024-01-10T09:10:33;-5.22;78.10
69546;SHT31;56766;52.260;20.746;2024-01-10T09:13:00;-5.22;77.83
69546;SHT31;56766;52.260;20.746;2024-01-10T09:15:27;-5.22;77.56
69546;SHT31;56766;52.260;20.746;2024-01-10T09:17:53;-5.24;77.41
69546;SHT31;56766;52.260;20.746;2024-01-10T09:20:20;-5.21;77.42
69546;SHT31;56766;52.260;20.746;2024-01-10T09:22:47;-5.13;77.80
69546;SHT31;56766;52.260;20.746;2024-01-10T09:25:15;-5.00;77.89
69546;SHT31;56766;52.260;20.746;2024-01-10T09:27:42;-4.87;77.88
69546;SHT31;56766;52.260;20.746;2024-01-10T09:30:10;-4.74;77.80
69546;SHT31;56766;52.260;20.746;2024-01-10T09:32:37;-4.59;77.63
69546;SHT31;56766;52.260;20.746;2024-01-10T09:35:04;-4.48;77.44
69546;SHT31;56766;52.260;20.746;2024-01-10T09:37:31;-4.39;77.37
69546;SHT31;56766;52.260;20.746;2024-01-10T09:39:58;-4.27;77.50
69546;SHT31;56766;52.260;20.746;2024-01-10T09:42:25;-4.14;77.36
69546;SHT31;56766;52.260;20.746;2024-01-10T09:44:52;-4.05;77.00
69546;SHT31;56766;52.260;20.746;2024-01-10T09:47:20;-4.01;76.83
69546;SHT31;56766;52.260;20.746;2024-01-10T09:49:47;-3.97;76.96
69546;SHT31;56766;52.260;20.746;2024-01-10T09:52:24;-3.90;76.82
69546;SHT31;56766;52.260;20.746;2024-01-10T09:54:57;-3.83;76.68
69546;SHT31;56766;52.260;20.746;2024-01-10T09:57:26;-3.80;76.39
69546;SHT31;56766;52.260;20.746;2024-01-10T09:59:53;-3.74;76.68
69546;SHT31;56766;52.260;20.746;2024-01-10T10:02:23;-3.68;76.32
69546;SHT31;56766;52.260;20.746;2024-01-10T10:05:13;-3.63;76.20
69546;SHT31;56766;52.260;20.746;2024-01-10T10:07:47;-3.60;76.11
69546;SHT31;56766;52.260;20.746;2024-01-10T10:10:16;-3.54;76.19
69546;SHT31;56766;52.260;20.746;2024-01-10T10:12:51;-3.49;75.78
69546;SHT31;56766;52.260;20.746;2024-01-10T10:15:23;-3.56;75.57
69546;SHT31;56766;52.260;20.746;2024-01-10T10:17:54;-3.60;75.59
69546;SHT31;56766;52.260;20.746;2024-01-10T10:20:29;-3.69;75.58
69546;SHT31;56766;52.260;20.746;2024-01-10T10:28:03;-3.54;75.87
69546;SHT31;56766;52.260;20.746;2024-01-10T10:30:32;-3.60;75.51
69546;SHT31;56766;52.260;20.746;2024-01-10T10:33:01;-3.67;75.72
69546;SHT31;56766;52.260;20.746;2024-01-10T10:35:29;-3.64;76.20
69546;SHT31;56766;52.260;20.746;2024-01-10T10:37:58;-3.55;76.24
69546;SHT31;56766;52.260;20.746;2024-01-10T10:40:25;-3.43;76.27
69546;SHT31;56766;52.260;20.746;2024-01-10T10:42:56;-3.34;76.29
69546;SHT31;56766;52.260;20.746;2024-01-10T10:45:23;-3.24;75.97
69546;SHT31;56766;52.260;20.746;2024-01-10T10:48:00;-3.23;75.60
69546;SHT31;56766;52.260;20.746;2024-01-10T10:50:34;-3.21;75.67
69546;SHT31;56766;52.260;20.746;2024-01-10T10:53:03;-3.15;75.88
69546;SHT31;56766;52.260;20.746;2024-01-10T10:55:31;-3.09;75.74
69546;SHT31;56766;52.260;20.746;2024-01-10T10:58:01;-3.04;75.74
69546;SHT31;56766;52.260;20.746;2024-01-10T11:00:34;-2.97;75.81
69546;SHT31;56766;52.260;20.746;2024-01-10T11:03:03;-2.90;75.86
69546;SHT31;56766;52.260;20.746;2024-01-10T11:05:31;-2.85;75.72
69546;SHT31;56766;52.260;20.746;2024-01-10T11:08:03;-2.81;75.61
69546;SHT31;56766;52.260;20.746;2024-01-10T11:10:34;-2.78;75.52
69546;SHT31;56766;52.260;20.746;2024-01-10T11:16:09;-2.77;75.26
69546;SHT31;56766;52.260;20.746;2024-01-10T11:25:04;-2.76;75.42
69546;SHT31;56766;52.260;20.746;2024-01-10T11:27:31;-2.77;75.22
69546;SHT31;56766;52.260;20.746;2024-01-10T11:30:00;-2.80;75.28
69546;SHT31;56766;52.260;20.746;2024-01-10T11:32:27;-2.82;75.45
69546;SHT31;56766;52.260;20.746;2024-01-10T11:37:22;-2.78;75.86
69546;SHT31;56766;52.260;20.746;2024-01-10T11:39:51;-2.72;76.04
69546;SHT31;56766;52.260;20.746;2024-01-10T11:42:22;-2.69;75.97
69546;SHT31;56766;52.260;20.746;2024-01-10T11:44:50;-2.70;76.04
69546;SHT31;56766;52.260;20.746;2024-01-10T11:47:20;-2.66;76.07
69546;SHT31;56766;52.260;20.746;2024-01-10T11:49:58;-2.62;76.18
69546;SHT31;56766;52.260;20.746;2024-01-10T11:52:33;-2.61;76.18
69546;SHT31;56766;52.260;20.746;2024-01-10T11:55:00;-2.56;76.29
69546;SHT31;56766;52.260;20.746;2024-01-10T11:57:29;-2.51;76.25
69546;SHT31;56766;52.260;20.746;2024-01-10T11:59:58;-2.50;76.21
69546;SHT31;56766;52.260;20.746;2024-01-10T12:02:32;-2.48;76.25
69546;SHT31;56766;52.260;20.746;2024-01-10T12:04:58;-2.45;76.24
69546;SHT31;56766;52.260;20.746;2024-01-10T12:07:25;-2.45;76.27
69546;SHT31;56766;52.260;20.746;2024-01-10T12:09:52;-2.42;76.23
69546;SHT31;56766;52.260;20.746;2024-01-10T12:12:18;-2.41;76.19
69546;SHT31;56766;52.260;20.746;2024-01-10T12:14:45;-2.44;76.06
69546;SHT31;56766;52.260;20.746;2024-01-10T12:17:13;-2.45;76.15
69546;SHT31;56766;52.260;20.746;2024-01-10T12:19:40;-2.40;76.24
69546;SHT31;56766;52.260;20.746;2024-01-10T12:22:11;-2.35;76.22
69546;SHT31;56766;52.260;20.746;2024-01-10T12:24:47;-2.30;76.11
69546;SHT31;56766;52.260;20.746;2024-01-10T12:27:19;-2.28;75.98
69546;SHT31;56766;52.260;20.746;2024-01-10T12:29:51;-2.29;75.74
69546;SHT31;56766;52.260;20.746;2024-01-10T12:32:19;-2.31;75.87
69546;SHT31;56766;52.260;20.746;2024-01-10T12:34:48;-2.26;75.88
69546;SHT31;56766;52.260;20.746;2024-01-10T12:37:20;-2.26;75.76
69546;SHT31;56766;52.260;20.746;2024-01-10T12:39:47;-2.27;75.76
69546;SHT31;56766;52.260;20.746;2024-01-10T12:42:15;-2.27;75.72
69546;SHT31;56766;52.260;20.746;2024-01-10T12:44:45;-2.26;75.80
69546;SHT31;56766;52.260;20.746;2024-01-10T12:47:20;-2.24;75.78
69546;SHT31;56766;52.260;20.746;2024-01-10T12:49:47;-2.20;75.83
69546;SHT31;56766;52.260;20.746;2024-01-10T12:52:14;-2.18;75.70
69546;SHT31;56766;52.260;20.746;2024-01-10T12:54:41;-2.19;75.72
69546;SHT31;56766;52.260;20.746;2024-01-10T12:57:08;-2.22;75.79
69546;SHT31;56766;52.260;20.746;2024-01-10T12:59:35;-2.20;75.80
69546;SHT31;56766;52.260;20.746;2024-01-10T13:02:03;-2.21;75.75
69546;SHT31;56766;52.260;20.746;2024-01-10T13:04:29;-2.22;75.70
69546;SHT31;56766;52.260;20.746;2024-01-10T13:06:56;-2.23;75.75
69546;SHT31;56766;52.260;20.746;2024-01-10T13:09:23;-2.23;75.88
69546;SHT31;56766;52.260;20.746;2024-01-10T13:11:50;-2.23;75.87
69546;SHT31;56766;52.260;20.746;2024-01-10T13:14:17;-2.27;75.75
69546;SHT31;56766;52.260;20.746;2024-01-10T13:16:44;-2.29;75.84
69546;SHT31;56766;52.260;20.746;2024-01-10T13:19:10;-2.30;75.90
69546;SHT31;56766;52.260;20.746;2024-01-10T13:21:37;-2.33;75.85
69546;SHT31;56766;52.260;20.746;2024-01-10T13:24:04;-2.38;75.83
69546;SHT31;56766;52.260;20.746;2024-01-10T13:26:31;-2.46;76.08
69546;SHT31;56766;52.260;20.746;2024-01-10T13:28:58;-2.56;76.16
69546;SHT31;56766;52.260;20.746;2024-01-10T13:31:25;-2.62;76.31
69546;SHT31;56766;52.260;20.746;2024-01-10T13:33:51;-2.69;76.40
69546;SHT31;56766;52.260;20.746;2024-01-10T13:36:18;-2.79;76.63
69546;SHT31;56766;52.260;20.746;2024-01-10T13:38:45;-2.82;76.72
69546;SHT31;56766;52.260;20.746;2024-01-10T13:41:13;-2.90;76.80
69546;SHT31;56766;52.260;20.746;2024-01-10T13:43:39;-3.02;76.96
69546;SHT31;56766;52.260;20.746;2024-01-10T13:46:06;-3.12;77.18
69546;SHT31;56766;52.260;20.746;2024-01-10T13:48:33;-3.18;77.31
69546;SHT31;56766;52.260;20.746;2024-01-10T13:50:59;-3.29;77.48
69546;SHT31;56766;52.260;20.746;2024-01-10T13:53:26;-3.37;77.66
69546;SHT31;56766;52.260;20.746;2024-01-10T13:55:53;-3.43;77.80
69546;SHT31;56766;52.260;20.746;2024-01-10T13:58:20;-3.49;77.93
69546;SHT31;56766;52.260;20.746;2024-01-10T14:00:50;-3.53;78.07
69546;SHT31;56766;52.260;20.746;2024-01-10T14:03:16;-3.58;78.16
69546;SHT31;56766;52.260;20.746;2024-01-10T14:05:43;-3.64;78.24
69546;SHT31;56766;52.260;20.746;2024-01-10T14:08:11;-3.74;78.44
69546;SHT31;56766;52.260;20.746;2024-01-10T14:10:37;-3.83;78.63
69546;SHT31;56766;52.260;20.746;2024-01-10T14:13:05;-3.90;78.80
69546;SHT31;56766;52.260;20.746;2024-01-10T14:15:33;-3.98;78.98
69546;SHT31;56766;52.260;20.746;2024-01-10T14:18:00;-4.08;79.20
69546;SHT31;56766;52.260;20.746;2024-01-10T14:20:26;-4.19;79.41
69546;SHT31;56766;52.260;20.746;2024-01-10T14:22:53;-4.25;79.59
69546;SHT31;56766;52.260;20.746;2024-01-10T14:25:20;-4.32;79.73
69546;SHT31;56766;52.260;20.746;2024-01-10T14:27:47;-4.41;79.97
69546;SHT31;56766;52.260;20.746;2024-01-10T14:30:13;-4.49;80.23
69546;SHT31;56766;52.260;20.746;2024-01-10T14:32:41;-4.58;80.42
69546;SHT31;56766;52.260;20.746;2024-01-10T14:35:08;-4.65;80.61
69546;SHT31;56766;52.260;20.746;2024-01-10T14:37:35;-4.72;80.75
69546;SHT31;56766;52.260;20.746;2024-01-10T14:40:03;-4.79;80.91
69546;SHT31;56766;52.260;20.746;2024-01-10T14:42:30;-4.85;81.07
69546;SHT31;56766;52.260;20.746;2024-01-10T14:44:57;-4.90;81.19
69546;SHT31;56766;52.260;20.746;2024-01-10T14:47:25;-4.97;81.30
69546;SHT31;56766;52.260;20.746;2024-01-10T14:49:51;-5.00;81.45
69546;SHT31;56766;52.260;20.746;2024-01-10T14:52:18;-5.06;81.51
69546;SHT31;56766;52.260;20.746;2024-01-10T14:54:45;-5.10;81.50
69546;SHT31;56766;52.260;20.746;2024-01-10T14:57:11;-5.14;81.46
69546;SHT31;56766;52.260;20.746;2024-01-10T14:59:40;-5.18;81.50
69546;SHT31;56766;52.260;20.746;2024-01-10T15:02:06;-5.21;81.50
69546;SHT31;56766;52.260;20.746;2024-01-10T15:04:37;-5.27;81.49
69546;SHT31;56766;52.260;20.746;2024-01-10T15:07:06;-5.30;81.51
69546;SHT31;56766;52.260;20.746;2024-01-10T15:09:33;-5.34;81.69
69546;SHT31;56766;52.260;20.746;2024-01-10T15:12:04;-5.38;81.85
69546;SHT31;56766;52.260;20.746;2024-01-10T15:14:36;-5.43;81.91
69546;SHT31;56766;52.260;20.746;2024-01-10T15:17:07;-5.48;82.18
69546;SHT31;56766;52.260;20.746;2024-01-10T15:19:35;-5.52;82.40
69546;SHT31;56766;52.260;20.746;2024-01-10T15:22:02;-5.55;82.42
69546;SHT31;56766;52.260;20.746;2024-01-10T15:24:29;-5.59;82.33
69546;SHT31;56766;52.260;20.746;2024-01-10T15:26:56;-5.61;82.27
69546;SHT31;56766;52.260;20.746;2024-01-10T15:29:28;-5.63;82.41
69546;SHT31;56766;52.260;20.746;2024-01-10T15:31:55;-5.67;82.57
69546;SHT31;56766;52.260;20.746;2024-01-10T15:34:22;-5.72;82.84